Time;durP1;ratioP1;P1;durP2;ratioP2;P2;SDS_P1;SDS_P2;PMS_P1;PMS_P2;Temp;Humidity;BMP_temperature;BMP_pressure;BME280_temperature;BME280_humidity;BME280_pressure;Samples;Min_cycle;Max_cycle;Signal;HPM_P1;HPM_P2
2022/08/20 00:00:45;;;;;;;21.85;14.25;;;17.60;99.90;;;;;;5011044;28;20760;-78
2022/08/20 00:03:26;;;;;;;24.80;15.18;;;17.50;99.90;;;;;;5006941;28;20037;-78
2022/08/20 00:06:12;;;;;;;28.50;17.02;;;17.50;99.90;;;;;;5006562;28;20077;-79
2022/08/20 00:08:39;;;;;;;26.10;15.40;;;17.50;99.90;;;;;;5003558;28;20034;-78
2022/08/20 00:11:08;;;;;;;24.55;15.27;;;17.50;99.90;;;;;;5004789;28;20038;-79
2022/08/20 00:13:46;;;;;;;23.17;14.57;;;17.50;99.90;;;;;;5006276;28;20049;-78
2022/08/20 00:16:12;;;;;;;23.73;15.10;;;17.50;99.90;;;;;;5006114;28;20045;-79
2022/08/20 00:18:42;;;;;;;23.08;15.05;;;17.50;99.90;;;;;;5005231;28;20034;-78
2022/08/20 00:21:14;;;;;;;25.83;16.08;;;17.50;99.90;;;;;;5011559;28;20050;-78
2022/08/20 00:23:42;;;;;;;22.73;14.52;;;17.60;99.90;;;;;;5012042;28;20112;-78
2022/08/20 00:26:09;;;;;;;25.73;15.30;;;17.60;99.90;;;;;;5010422;28;20037;-78
2022/08/20 00:28:35;;;;;;;26.70;14.82;;;17.50;99.90;;;;;;5011530;28;20539;-79
2022/08/20 00:31:04;;;;;;;24.58;15.32;;;17.60;99.90;;;;;;5007453;28;20489;-79
2022/08/20 00:33:30;;;;;;;25.98;15.52;;;17.60;99.90;;;;;;5009048;28;20041;-78
2022/08/20 00:35:56;;;;;;;23.25;15.23;;;17.60;99.90;;;;;;5009906;28;20088;-79
2022/08/20 00:38:23;;;;;;;25.73;15.13;;;17.50;99.90;;;;;;5011356;28;20045;-78
2022/08/20 00:40:52;;;;;;;23.15;14.88;;;17.50;99.90;;;;;;5008081;28;20033;-78
2022/08/20 00:43:43;;;;;;;22.38;14.93;;;17.40;99.90;;;;;;5008436;28;20065;-78
2022/08/20 00:46:20;;;;;;;26.27;15.75;;;17.50;99.90;;;;;;5008120;28;20278;-78
2022/08/20 00:48:49;;;;;;;24.03;15.43;;;17.50;99.90;;;;;;5010334;28;20034;-78
2022/08/20 00:51:27;;;;;;;23.88;15.25;;;17.50;99.90;;;;;;5009051;28;20026;-79
2022/08/20 00:53:55;;;;;;;;;;;17.50;99.90;;;;;;5008708;28;20049;-78
2022/08/20 00:56:21;;;;;;;24.58;14.65;;;17.50;99.90;;;;;;5010021;28;20025;-78
2022/08/20 00:58:49;;;;;;;24.98;15.55;;;17.50;99.90;;;;;;5009229;28;20160;-79
2022/08/20 01:01:16;;;;;;;24.65;16.00;;;17.50;99.90;;;;;;5009444;28;20120;-79
2022/08/20 01:03:42;;;;;;;26.83;17.60;;;17.50;99.90;;;;;;5011352;28;20040;-78
2022/08/20 01:06:10;;;;;;;22.77;15.02;;;17.50;99.90;;;;;;5009455;28;20037;-77
2022/08/20 01:08:38;;;;;;;25.95;15.93;;;17.40;99.90;;;;;;5007291;28;20034;-79
2022/08/20 01:11:16;;;;;;;24.00;14.90;;;17.50;99.90;;;;;;5004688;28;20482;-79
2022/08/20 01:13:42;;;;;;;;;;;17.50;99.90;;;;;;5004758;28;20037;-79
2022/08/20 01:16:24;;;;;;;20.88;14.00;;;17.50;99.90;;;;;;5006253;28;20292;-79
2022/08/20 01:18:51;;;;;;;24.17;14.65;;;17.50;99.90;;;;;;5004488;28;20068;-79
2022/08/20 01:21:36;;;;;;;21.23;14.35;;;17.40;99.90;;;;;;5005729;28;20042;-79
2022/08/20 01:24:15;;;;;;;23.80;14.50;;;17.40;99.90;;;;;;5004121;28;20049;-78
2022/08/20 01:26:44;;;;;;;22.38;15.13;;;17.50;99.90;;;;;;5004935;28;20065;-78
2022/08/20 01:29:17;;;;;;;22.73;14.27;;;17.50;99.90;;;;;;5002843;28;20060;-78
2022/08/20 01:31:44;;;;;;;23.38;14.90;;;17.50;99.90;;;;;;5007108;28;20038;-79
2022/08/20 01:34:13;;;;;;;23.13;15.10;;;17.50;99.90;;;;;;5002158;28;20112;-78
2022/08/20 01:36:42;;;;;;;22.73;14.15;;;17.50;99.90;;;;;;5007321;28;21414;-79
2022/08/20 01:39:12;;;;;;;23.52;14.52;;;17.50;99.90;;;;;;5006219;28;20489;-79
2022/08/20 01:41:46;;;;;;;22.02;14.38;;;17.50;99.90;;;;;;5008224;28;20766;-79
2022/08/20 01:44:12;;;;;;;20.70;13.30;;;17.50;99.90;;;;;;5001700;28;20029;-79
2022/08/20 01:46:41;;;;;;;20.40;13.63;;;17.40;99.90;;;;;;5004855;28;20093;-77
2022/08/20 01:49:11;;;;;;;21.55;13.25;;;17.40;99.90;;;;;;5006637;28;20127;-78
2022/08/20 01:51:37;;;;;;;21.38;14.63;;;17.40;99.90;;;;;;5006305;28;20276;-79
2022/08/20 01:54:05;;;;;;;19.02;13.02;;;17.40;99.90;;;;;;5006367;28;20037;-79
2022/08/20 01:56:31;;;;;;;20.53;13.27;;;17.40;99.90;;;;;;5003538;28;20436;-79
2022/08/20 01:59:00;;;;;;;21.17;13.95;;;17.40;99.90;;;;;;5004831;28;20064;-79
2022/08/20 02:01:35;;;;;;;20.73;12.98;;;17.40;99.90;;;;;;5004743;28;20057;-79
2022/08/20 02:04:03;;;;;;;19.50;13.55;;;17.40;99.90;;;;;;5003565;28;20041;-79
2022/08/20 02:06:42;;;;;;;19.55;12.73;;;17.40;99.90;;;;;;5005332;28;20420;-79
2022/08/20 02:09:08;;;;;;;20.45;13.20;;;17.50;99.90;;;;;;5003202;28;20480;-78
2022/08/20 02:11:35;;;;;;;21.92;13.30;;;17.50;99.90;;;;;;5001124;28;20034;-79
2022/08/20 02:14:04;;;;;;;18.73;12.95;;;17.60;99.90;;;;;;5004051;28;20033;-79
2022/08/20 02:16:33;;;;;;;19.48;13.18;;;17.50;99.90;;;;;;5009493;28;20499;-80
2022/08/20 02:19:13;;;;;;;20.10;12.63;;;17.50;99.90;;;;;;5007784;28;20130;-79
2022/08/20 02:21:44;;;;;;;21.80;13.73;;;17.50;99.90;;;;;;5008970;28;20092;-79
2022/08/20 02:24:11;;;;;;;21.05;13.48;;;17.50;99.90;;;;;;5006405;28;20095;-79
2022/08/20 02:26:37;;;;;;;18.15;12.43;;;17.50;99.90;;;;;;5005212;28;20038;-79
2022/08/20 02:29:07;;;;;;;17.27;12.07;;;17.50;99.90;;;;;;5011097;28;20181;-79
2022/08/20 02:31:34;;;;;;;18.75;13.10;;;17.50;99.90;;;;;;5008581;28;20133;-79
2022/08/20 02:34:00;;;;;;;16.95;12.05;;;17.50;99.90;;;;;;5011002;28;20022;-80
2022/08/20 02:36:26;;;;;;;18.98;12.50;;;17.50;99.90;;;;;;5000831;28;20033;-80
2022/08/20 02:38:52;;;;;;;18.35;12.82;;;17.50;99.90;;;;;;5004618;28;20044;-80
2022/08/20 02:41:20;;;;;;;18.02;12.82;;;17.50;99.90;;;;;;5007376;28;20049;-79
2022/08/20 02:43:46;;;;;;;17.92;12.32;;;17.50;99.90;;;;;;5005331;28;20041;-79
2022/08/20 02:46:14;;;;;;;19.35;13.48;;;17.40;99.90;;;;;;5003427;28;20056;-80
2022/08/20 02:48:40;;;;;;;21.05;13.05;;;17.40;99.90;;;;;;5001885;28;20037;-80
2022/08/20 02:51:07;;;;;;;19.50;12.98;;;17.40;99.90;;;;;;5004570;28;20030;-79
2022/08/20 02:53:37;;;;;;;20.00;13.05;;;17.40;99.90;;;;;;5008631;28;20112;-80
2022/08/20 02:56:08;;;;;;;22.05;13.77;;;17.40;99.90;;;;;;5003827;28;20504;-80
2022/08/20 02:58:34;;;;;;;18.35;11.60;;;17.40;99.90;;;;;;5002562;28;20053;-80
2022/08/20 03:01:02;;;;;;;20.15;12.48;;;17.40;99.90;;;;;;4999956;28;20046;-80
2022/08/20 03:03:28;;;;;;;20.63;13.48;;;17.50;99.90;;;;;;5001056;28;20818;-79
2022/08/20 03:05:56;;;;;;;20.75;13.10;;;17.40;99.90;;;;;;5006986;28;20113;-80
2022/08/20 03:08:23;;;;;;;17.10;11.88;;;17.40;99.90;;;;;;5004612;28;20038;-80
2022/08/20 03:10:49;;;;;;;19.30;12.18;;;17.50;99.90;;;;;;5003345;28;20377;-80
2022/08/20 03:13:16;;;;;;;18.45;12.02;;;17.40;99.90;;;;;;5001477;28;20064;-79
2022/08/20 03:15:46;;;;;;;18.55;12.85;;;17.40;99.90;;;;;;5004813;28;20037;-79
2022/08/20 03:18:13;;;;;;;18.20;11.15;;;17.40;99.90;;;;;;5005085;28;20033;-80
2022/08/20 03:20:39;;;;;;;20.10;13.05;;;17.50;99.90;;;;;;5007431;28;20055;-79
2022/08/20 03:23:05;;;;;;;19.52;12.27;;;17.40;99.90;;;;;;5003537;28;20026;-79
2022/08/20 03:25:32;;;;;;;18.08;11.85;;;17.40;99.90;;;;;;5001456;28;20033;-80
2022/08/20 03:27:58;;;;;;;18.35;12.45;;;17.50;99.90;;;;;;5003500;28;20550;-79
2022/08/20 03:30:25;;;;;;;18.00;11.65;;;17.40;99.90;;;;;;5003078;28;20049;-81
2022/08/20 03:32:51;;;;;;;18.83;12.05;;;17.40;99.90;;;;;;5003469;28;20548;-80
2022/08/20 03:35:21;;;;;;;19.63;12.50;;;17.40;99.90;;;;;;5005668;28;20061;-79
2022/08/20 03:37:47;;;;;;;16.17;11.65;;;17.40;99.90;;;;;;5007074;28;20485;-80
2022/08/20 03:40:16;;;;;;;18.58;11.52;;;17.40;99.90;;;;;;5006137;28;20080;-80
2022/08/20 03:42:42;;;;;;;17.63;12.65;;;17.40;99.90;;;;;;5006360;28;20027;-80
2022/08/20 03:45:11;;;;;;;17.77;12.02;;;17.40;99.90;;;;;;5006594;28;20042;-79
2022/08/20 03:47:37;;;;;;;17.52;10.90;;;17.40;99.90;;;;;;5006092;28;20052;-80
2022/08/20 03:50:05;;;;;;;16.70;11.02;;;17.30;99.90;;;;;;5010067;28;20153;-80
2022/08/20 03:52:30;;;;;;;;;;;17.30;99.90;;;;;;5005767;28;20813;-80
2022/08/20 03:54:56;;;;;;;14.90;10.55;;;17.30;99.90;;;;;;5005986;28;20008;-80
2022/08/20 03:57:21;;;;;;;14.68;10.40;;;17.30;99.90;;;;;;5007563;28;20041;-79
2022/08/20 03:59:47;;;;;;;17.40;10.60;;;17.30;99.90;;;;;;5008481;28;20042;-80
2022/08/20 04:02:13;;;;;;;16.60;10.93;;;17.30;99.90;;;;;;5008910;28;20049;-80
2022/08/20 04:04:39;;;;;;;17.92;11.30;;;17.30;99.90;;;;;;5010197;28;20044;-79
2022/08/20 04:07:24;;;;;;;18.30;11.77;;;17.20;99.90;;;;;;5006093;28;20042;-80
2022/08/20 04:09:54;;;;;;;18.92;11.23;;;17.20;99.90;;;;;;5010708;28;20065;-79
2022/08/20 04:12:19;;;;;;;17.05;11.00;;;17.30;99.90;;;;;;5010201;28;20034;-81
2022/08/20 04:14:45;;;;;;;17.50;11.45;;;17.30;99.90;;;;;;5006048;28;20026;-79
2022/08/20 04:17:12;;;;;;;16.35;10.65;;;17.30;99.90;;;;;;5010643;28;20351;-80
2022/08/20 04:19:39;;;;;;;17.37;10.53;;;17.30;99.90;;;;;;5005983;28;20069;-80
2022/08/20 04:22:06;;;;;;;15.27;10.70;;;17.30;99.90;;;;;;5007905;28;20101;-80
2022/08/20 04:24:32;;;;;;;21.67;11.15;;;17.30;99.90;;;;;;5002859;28;20102;-80
2022/08/20 04:27:01;;;;;;;15.82;10.70;;;17.20;99.90;;;;;;5007752;28;20100;-80
2022/08/20 04:29:27;;;;;;;15.63;11.00;;;17.20;99.90;;;;;;5004831;28;20057;-80
2022/08/20 04:31:53;;;;;;;16.60;10.65;;;17.20;99.90;;;;;;5006503;28;20045;-80
2022/08/20 04:34:19;;;;;;;17.15;11.55;;;17.30;99.90;;;;;;5005712;28;20554;-80
2022/08/20 04:36:46;;;;;;;16.63;10.48;;;17.30;99.90;;;;;;5004259;28;20037;-80
2022/08/20 04:39:13;;;;;;;15.47;10.47;;;17.30;99.90;;;;;;5006280;28;20446;-80
2022/08/20 04:41:39;;;;;;;16.33;10.68;;;17.30;99.90;;;;;;5005334;28;20026;-80
2022/08/20 04:44:05;;;;;;;14.27;9.50;;;17.30;99.90;;;;;;5008016;28;20034;-80
2022/08/20 04:46:31;;;;;;;13.10;9.55;;;17.30;99.90;;;;;;5008262;28;20040;-81
2022/08/20 04:48:57;;;;;;;16.20;10.52;;;17.30;99.90;;;;;;5006664;28;20100;-80
2022/08/20 04:51:23;;;;;;;14.52;8.95;;;17.30;99.90;;;;;;5003554;28;20784;-80
2022/08/20 04:53:49;;;;;;;15.40;10.43;;;17.30;99.90;;;;;;5003999;28;20029;-80
2022/08/20 04:56:14;;;;;;;13.38;9.57;;;17.30;99.90;;;;;;5002395;28;20049;-80
2022/08/20 04:58:46;;;;;;;13.68;9.05;;;17.40;99.90;;;;;;5003445;28;20033;-80
2022/08/20 05:01:12;;;;;;;14.60;9.27;;;17.40;99.90;;;;;;5002363;28;20472;-80
2022/08/20 05:03:38;;;;;;;12.52;9.38;;;17.40;99.90;;;;;;5004751;28;20042;-80
2022/08/20 05:06:06;;;;;;;11.60;9.02;;;17.40;99.90;;;;;;5007736;28;20051;-80
2022/08/20 05:08:33;;;;;;;14.73;9.73;;;17.40;99.90;;;;;;5001748;28;20064;-79
2022/08/20 05:10:59;;;;;;;12.77;9.10;;;17.40;99.90;;;;;;5004819;28;20526;-80
2022/08/20 05:13:26;;;;;;;14.07;9.88;;;17.30;99.90;;;;;;5006826;28;20133;-81
2022/08/20 05:15:52;;;;;;;12.80;9.02;;;17.30;99.90;;;;;;5001526;28;20045;-80
2022/08/20 05:18:20;;;;;;;14.98;9.68;;;17.30;99.90;;;;;;5006549;28;20092;-80
2022/08/20 05:20:46;;;;;;;14.23;9.13;;;17.30;99.90;;;;;;5004225;28;20055;-80
2022/08/20 05:23:14;;;;;;;16.67;9.60;;;17.30;99.90;;;;;;5006863;28;20042;-80
2022/08/20 05:25:42;;;;;;;13.63;9.15;;;17.30;99.90;;;;;;5007205;28;20030;-80
2022/08/20 05:28:15;;;;;;;11.98;8.85;;;17.30;99.90;;;;;;5003857;28;20042;-80
2022/08/20 05:30:44;;;;;;;14.10;8.95;;;17.30;99.90;;;;;;5004463;28;20042;-79
2022/08/20 05:33:12;;;;;;;12.80;8.88;;;17.30;99.90;;;;;;5003321;28;20034;-80
2022/08/20 05:35:39;;;;;;;14.55;9.27;;;17.30;99.90;;;;;;5005657;28;20441;-80
2022/08/20 05:38:07;;;;;;;14.93;9.02;;;17.30;99.90;;;;;;5002408;28;20046;-80
2022/08/20 05:40:33;;;;;;;15.75;9.32;;;17.30;99.90;;;;;;5003126;28;20044;-80
2022/08/20 05:42:58;;;;;;;12.52;8.68;;;17.30;99.90;;;;;;5006383;28;20042;-80
2022/08/20 05:45:24;;;;;;;15.25;9.80;;;17.20;99.90;;;;;;5004169;28;20044;-80
2022/08/20 05:47:49;;;;;;;12.93;9.43;;;17.30;99.90;;;;;;5008279;28;20503;-79
2022/08/20 05:50:16;;;;;;;12.57;8.52;;;17.30;99.90;;;;;;5008250;28;20041;-80
2022/08/20 05:52:43;;;;;;;11.52;8.35;;;17.40;99.90;;;;;;5009340;28;20040;-79
2022/08/20 05:55:12;;;;;;;16.63;9.48;;;17.30;99.90;;;;;;5008448;28;20209;-80
2022/08/20 05:57:38;;;;;;;13.55;8.85;;;17.40;99.90;;;;;;5008628;28;20040;-80
2022/08/20 06:00:07;;;;;;;13.32;8.68;;;17.40;99.90;;;;;;5006471;28;20033;-80
2022/08/20 06:05:18;;;;;;;14.63;8.68;;;17.40;99.90;;;;;;4981437;28;20041;-80
2022/08/20 06:07:44;;;;;;;11.05;8.75;;;17.40;99.90;;;;;;5014938;28;20046;-80
2022/08/20 06:10:10;;;;;;;11.95;8.18;;;17.30;99.90;;;;;;5000655;28;20041;-80
2022/08/20 06:12:36;;;;;;;11.70;7.78;;;17.40;99.90;;;;;;5003541;28;20038;-79
2022/08/20 06:15:06;;;;;;;11.93;8.50;;;17.40;99.90;;;;;;5002660;28;20022;-80
2022/08/20 06:17:35;;;;;;;13.07;9.07;;;17.40;99.90;;;;;;4998580;28;20445;-80
2022/08/20 06:20:05;;;;;;;12.95;8.65;;;17.40;99.90;;;;;;5000770;28;20045;-80
2022/08/20 06:22:31;;;;;;;11.82;8.07;;;17.40;99.90;;;;;;5004125;28;20133;-80
2022/08/20 06:24:56;;;;;;;11.52;7.93;;;17.40;99.90;;;;;;5006459;28;20108;-79
2022/08/20 06:27:22;;;;;;;10.38;7.35;;;17.40;99.90;;;;;;5008070;28;20042;-80
2022/08/20 06:29:49;;;;;;;11.55;8.13;;;17.50;99.90;;;;;;5008044;28;20042;-80
2022/08/20 06:32:14;;;;;;;10.88;8.18;;;17.60;99.90;;;;;;5008220;28;20137;-80
2022/08/20 06:34:40;;;;;;;12.55;8.20;;;17.50;99.90;;;;;;5006430;28;20137;-80
2022/08/20 06:37:18;;;;;;;11.70;7.78;;;17.50;99.90;;;;;;5007371;28;20074;-80
2022/08/20 06:39:44;;;;;;;11.95;7.78;;;17.60;99.90;;;;;;5006895;28;20043;-79
2022/08/20 06:42:09;;;;;;;10.27;7.22;;;17.60;99.90;;;;;;5000495;28;20037;-79
2022/08/20 06:44:35;;;;;;;10.77;6.90;;;17.70;99.90;;;;;;5001983;28;20026;-79
2022/08/20 06:47:03;;;;;;;10.82;7.68;;;17.70;99.90;;;;;;5006770;28;20038;-79
2022/08/20 06:49:29;;;;;;;10.00;7.33;;;17.70;99.90;;;;;;4999661;28;20042;-79
2022/08/20 06:51:54;;;;;;;10.98;7.97;;;17.80;99.90;;;;;;4999957;28;20452;-79
2022/08/20 06:54:20;;;;;;;11.85;7.65;;;17.80;99.90;;;;;;5004416;28;20034;-79
2022/08/20 06:56:46;;;;;;;11.05;7.55;;;17.80;99.90;;;;;;5009851;28;20104;-79
2022/08/20 06:59:11;;;;;;;11.63;7.03;;;17.80;99.90;;;;;;5008794;28;20022;-80
2022/08/20 07:01:37;;;;;;;9.68;7.25;;;17.90;99.90;;;;;;4999555;28;21569;-78
2022/08/20 07:04:04;;;;;;;11.52;7.55;;;17.90;99.90;;;;;;5002593;28;20030;-80
2022/08/20 07:06:30;;;;;;;11.73;7.00;;;18.00;99.90;;;;;;5005401;28;20046;-80
2022/08/20 07:08:55;;;;;;;10.57;7.20;;;18.00;99.90;;;;;;5003739;28;20041;-80
2022/08/20 07:11:21;;;;;;;9.55;6.78;;;18.10;99.90;;;;;;5004349;28;20034;-80
2022/08/20 07:13:48;;;;;;;10.55;6.80;;;18.10;99.90;;;;;;5009396;28;20033;-79
2022/08/20 07:16:14;;;;;;;9.15;6.72;;;18.20;99.90;;;;;;5010789;28;20034;-79
2022/08/20 07:18:40;;;;;;;9.35;6.88;;;18.10;99.90;;;;;;5012837;28;20026;-79
2022/08/20 07:21:05;;;;;;;8.18;6.18;;;18.20;99.90;;;;;;5012943;28;20620;-79
2022/08/20 07:23:32;;;;;;;8.50;6.50;;;18.20;99.90;;;;;;5011236;28;20034;-80
2022/08/20 07:25:57;;;;;;;8.52;6.82;;;18.30;99.90;;;;;;5013034;28;20037;-79
2022/08/20 07:28:29;;;;;;;10.95;8.02;;;18.40;99.90;;;;;;5009433;28;20382;-80
2022/08/20 07:33:40;;;;;;;8.40;6.10;;;18.50;99.90;;;;;;5007538;28;20033;-80
2022/08/20 07:36:06;;;;;;;8.70;6.57;;;18.50;99.90;;;;;;5011055;28;20537;-81
2022/08/20 07:38:33;;;;;;;6.88;5.43;;;18.50;99.90;;;;;;5011955;28;20087;-81
2022/08/20 07:41:01;;;;;;;8.88;5.95;;;18.60;99.90;;;;;;5012164;28;20045;-80
2022/08/20 07:43:27;;;;;;;7.78;6.03;;;18.70;99.90;;;;;;5011401;28;20026;-80
2022/08/20 07:45:56;;;;;;;8.80;5.70;;;18.70;99.90;;;;;;5008523;28;20041;-80
2022/08/20 07:48:29;;;;;;;7.93;5.40;;;18.80;99.90;;;;;;5004948;28;20046;-80
2022/08/20 07:51:03;;;;;;;6.45;5.13;;;19.00;99.90;;;;;;5006869;28;20046;-80
2022/08/20 07:53:29;;;;;;;7.22;5.47;;;18.90;99.90;;;;;;5012205;28;20029;-80
2022/08/20 07:55:56;;;;;;;6.60;4.50;;;19.10;99.90;;;;;;5023242;28;20896;-80
2022/08/20 07:58:23;;;;;;;6.25;5.30;;;19.20;99.90;;;;;;5008477;28;20038;-81
2022/08/20 08:00:50;;;;;;;5.25;4.28;;;19.10;99.90;;;;;;5008271;28;20042;-81
2022/08/20 08:03:16;;;;;;;7.20;5.50;;;19.20;99.90;;;;;;5009381;28;20180;-80
2022/08/20 08:05:45;;;;;;;6.15;5.13;;;19.10;99.90;;;;;;5009224;28;20079;-80
2022/08/20 08:08:14;;;;;;;5.80;4.90;;;19.20;99.90;;;;;;5004958;28;20029;-80
2022/08/20 08:10:41;;;;;;;6.05;4.93;;;19.20;99.90;;;;;;5008155;28;20034;-80
2022/08/20 08:13:11;;;;;;;6.57;4.78;;;19.30;99.90;;;;;;5008517;28;20427;-80
2022/08/20 08:15:40;;;;;;;6.50;4.72;;;19.30;99.90;;;;;;5012458;28;20089;-80
2022/08/20 08:18:10;;;;;;;5.57;5.05;;;19.20;99.90;;;;;;5007566;28;20045;-80
2022/08/20 08:20:40;;;;;;;8.68;4.63;;;19.30;99.90;;;;;;5007440;28;20434;-80
2022/08/20 08:23:10;;;;;;;5.28;4.75;;;19.40;99.90;;;;;;5010836;28;20084;-79
2022/08/20 08:25:38;;;;;;;6.65;5.07;;;19.40;99.90;;;;;;5007065;28;20405;-80
2022/08/20 08:28:04;;;;;;;5.82;4.95;;;19.20;99.90;;;;;;5007339;28;20061;-80
2022/08/20 08:30:30;;;;;;;6.65;4.95;;;19.30;99.90;;;;;;5009082;28;20508;-80
2022/08/20 08:35:44;;;;;;;6.82;4.70;;;19.50;99.90;;;;;;5010370;28;20064;-80
2022/08/20 08:38:10;;;;;;;5.57;4.65;;;19.50;99.90;;;;;;5007856;28;20088;-79
2022/08/20 08:40:36;;;;;;;5.93;4.80;;;19.60;99.90;;;;;;5011826;28;20046;-79
2022/08/20 08:43:03;;;;;;;7.45;4.60;;;19.70;99.90;;;;;;5007441;28;20056;-80
2022/08/20 08:45:44;;;;;;;6.60;4.55;;;19.70;99.90;;;;;;5007146;28;20041;-79
2022/08/20 08:48:16;;;;;;;5.95;4.88;;;19.60;99.90;;;;;;5004532;28;21782;-80
2022/08/20 08:50:45;;;;;;;6.80;4.70;;;19.60;99.90;;;;;;5005629;28;20168;-80
2022/08/20 08:53:24;;;;;;;6.55;4.80;;;19.70;99.90;;;;;;5009468;28;20076;-80
2022/08/20 08:55:50;;;;;;;5.40;4.53;;;19.80;99.90;;;;;;5007602;28;20448;-80
2022/08/20 08:58:15;;;;;;;5.90;5.30;;;19.80;99.90;;;;;;5008538;28;20030;-80
2022/08/20 09:00:41;;;;;;;6.65;5.38;;;19.80;99.90;;;;;;5006535;28;20030;-80
2022/08/20 09:03:11;;;;;;;6.20;4.45;;;19.80;99.90;;;;;;5007760;28;20038;-79
2022/08/20 09:05:47;;;;;;;5.40;4.43;;;19.80;99.90;;;;;;5009662;28;20416;-80
2022/08/20 09:08:18;;;;;;;6.43;4.75;;;20.00;99.90;;;;;;5006542;28;20117;-80
2022/08/20 09:10:44;;;;;;;7.53;4.47;;;20.10;99.90;;;;;;5007092;28;20443;-80
2022/08/20 09:13:11;;;;;;;7.53;5.30;;;20.00;99.90;;;;;;5006879;28;20583;-80
2022/08/20 09:15:36;;;;;;;6.38;5.40;;;19.90;99.90;;;;;;5007419;28;20151;-80
2022/08/20 09:18:02;;;;;;;5.78;4.85;;;19.80;99.90;;;;;;5006959;28;20018;-79
2022/08/20 09:20:28;;;;;;;6.60;5.13;;;19.90;99.90;;;;;;5006109;28;20069;-80
2022/08/20 09:22:54;;;;;;;5.95;5.35;;;19.90;99.90;;;;;;5008767;28;20112;-81
2022/08/20 09:25:20;;;;;;;5.88;5.25;;;19.90;99.90;;;;;;5006636;28;20160;-80
2022/08/20 09:27:47;;;;;;;5.60;5.03;;;20.10;99.90;;;;;;5008012;28;20038;-80
2022/08/20 09:30:14;;;;;;;6.55;5.40;;;20.10;99.90;;;;;;5008744;28;20040;-81
2022/08/20 09:32:42;;;;;;;6.68;5.03;;;20.20;99.90;;;;;;5009178;28;20046;-81
2022/08/20 09:35:09;;;;;;;5.18;4.68;;;20.00;99.90;;;;;;5010763;28;20042;-79
2022/08/20 09:37:35;;;;;;;6.90;4.68;;;20.00;99.90;;;;;;5008179;28;20038;-77
2022/08/20 09:40:01;;;;;;;6.93;5.05;;;20.10;99.90;;;;;;5007696;28;20061;-77
2022/08/20 09:42:29;;;;;;;6.07;5.22;;;20.10;99.90;;;;;;5011257;28;20069;-78
2022/08/20 09:44:55;;;;;;;6.05;5.20;;;20.00;99.90;;;;;;5010305;28;21085;-78
2022/08/20 09:47:21;;;;;;;6.60;5.60;;;19.90;99.90;;;;;;5010994;28;20156;-77
2022/08/20 09:49:47;;;;;;;8.18;5.15;;;19.90;99.90;;;;;;5009959;28;20030;-77
2022/08/20 09:52:35;;;;;;;5.55;4.95;;;20.00;99.90;;;;;;5006565;28;20512;-77
2022/08/20 09:55:18;;;;;;;6.15;4.93;;;19.90;99.90;;;;;;5008637;28;20026;-77
2022/08/20 09:57:45;;;;;;;8.23;5.55;;;19.90;99.90;;;;;;5009913;28;20045;-78
2022/08/20 10:00:11;;;;;;;7.47;5.78;;;19.70;99.90;;;;;;5006091;28;21272;-77
2022/08/20 10:02:40;;;;;;;6.38;5.22;;;19.60;99.90;;;;;;5009813;28;20088;-78
2022/08/20 10:05:07;;;;;;;9.68;5.45;;;19.50;99.90;;;;;;5005358;28;20088;-78
2022/08/20 10:07:33;;;;;;;7.18;5.40;;;19.60;99.90;;;;;;5010496;28;20030;-79
2022/08/20 10:10:00;;;;;;;6.45;5.53;;;19.70;99.90;;;;;;5012554;28;20040;-79
2022/08/20 10:12:26;;;;;;;6.85;5.25;;;19.60;99.90;;;;;;5027507;28;20044;-78
2022/08/20 10:14:51;;;;;;;8.93;6.00;;;19.70;99.90;;;;;;5010205;28;20034;-79
2022/08/20 10:17:17;;;;;;;7.30;5.57;;;19.80;99.90;;;;;;5013764;28;20030;-79
2022/08/20 10:19:42;;;;;;;8.20;5.65;;;19.80;99.90;;;;;;5008821;28;20465;-78
2022/08/20 10:22:08;;;;;;;6.75;5.25;;;20.10;99.90;;;;;;5011379;28;20525;-78
2022/08/20 10:24:34;;;;;;;7.38;5.30;;;20.30;99.90;;;;;;5009920;28;20573;-79
2022/08/20 10:27:01;;;;;;;9.27;5.57;;;20.40;99.90;;;;;;5012818;28;20056;-79
2022/08/20 10:29:29;;;;;;;6.93;5.67;;;20.60;99.90;;;;;;5011543;28;20029;-79
2022/08/20 10:31:55;;;;;;;7.75;6.40;;;20.70;99.90;;;;;;5023619;28;20695;-79
2022/08/20 10:34:22;;;;;;;8.98;6.00;;;20.90;99.90;;;;;;5009862;28;20115;-80
2022/08/20 10:36:48;;;;;;;11.10;6.70;;;20.90;99.90;;;;;;5010093;28;20053;-79
2022/08/20 10:39:14;;;;;;;7.80;6.22;;;20.80;99.90;;;;;;5008666;28;20063;-78
2022/08/20 10:41:40;;;;;;;7.93;6.00;;;20.90;99.90;;;;;;5008635;28;20026;-79
2022/08/20 10:44:06;;;;;;;8.38;6.70;;;20.90;99.90;;;;;;5009314;28;20088;-78
2022/08/20 10:46:32;;;;;;;9.25;6.88;;;21.00;99.90;;;;;;5014161;28;22112;-79
2022/08/20 10:48:58;;;;;;;7.10;5.43;;;21.10;99.90;;;;;;5005726;28;20030;-79
2022/08/20 10:51:23;;;;;;;8.32;5.50;;;21.20;99.90;;;;;;5003235;28;20152;-79
2022/08/20 10:53:49;;;;;;;6.30;4.97;;;21.30;99.90;;;;;;5004482;28;20639;-78
2022/08/20 10:56:15;;;;;;;5.85;4.72;;;21.40;99.90;;;;;;5001529;28;20042;-79
2022/08/20 10:58:40;;;;;;;4.43;4.03;;;21.30;99.90;;;;;;5004942;28;20038;-80
2022/08/20 11:01:07;;;;;;;5.28;4.05;;;21.40;99.90;;;;;;5012696;28;20169;-79
2022/08/20 11:03:33;;;;;;;4.43;3.97;;;21.70;99.90;;;;;;5011867;28;20030;-80
2022/08/20 11:05:59;;;;;;;2.30;2.10;;;22.00;99.90;;;;;;5016868;28;20033;-83
2022/08/20 11:08:25;;;;;;;6.35;4.15;;;21.60;99.90;;;;;;5011319;28;20065;-83
2022/08/20 11:10:51;;;;;;;5.07;3.53;;;21.60;99.90;;;;;;5011985;28;20034;-83
2022/08/20 11:13:17;;;;;;;3.75;3.30;;;21.80;99.90;;;;;;5014385;28;20041;-85
2022/08/20 11:15:43;;;;;;;4.22;3.38;;;21.90;99.90;;;;;;5013263;28;20409;-82
2022/08/20 11:18:09;;;;;;;3.30;3.00;;;21.80;99.90;;;;;;5011552;28;20061;-82
2022/08/20 11:20:36;;;;;;;3.42;2.97;;;21.60;99.90;;;;;;5011848;28;20492;-83
2022/08/20 11:23:01;;;;;;;14.23;3.63;;;21.30;99.90;;;;;;5012283;28;20026;-83
2022/08/20 11:25:27;;;;;;;3.63;3.05;;;21.10;99.90;;;;;;5011158;28;20365;-85
2022/08/20 11:27:55;;;;;;;4.25;2.80;;;21.20;99.90;;;;;;5013832;28;20060;-82
2022/08/20 11:30:24;;;;;;;5.20;2.50;;;21.30;99.90;;;;;;5010429;28;20034;-83
2022/08/20 11:32:50;;;;;;;2.85;2.65;;;21.30;99.90;;;;;;5009509;28;20033;-82
2022/08/20 11:35:17;;;;;;;2.72;2.53;;;21.30;99.90;;;;;;5012416;28;20341;-82
2022/08/20 11:37:43;;;;;;;4.53;2.80;;;21.30;99.90;;;;;;5011619;28;20045;-86
2022/08/20 11:40:10;;;;;;;3.20;2.90;;;21.30;99.90;;;;;;5011597;28;20034;-82
2022/08/20 11:42:37;;;;;;;3.38;2.58;;;21.20;99.90;;;;;;5007594;28;20106;-82
2022/08/20 11:45:04;;;;;;;2.55;2.15;;;21.20;99.90;;;;;;5010207;28;20050;-83
2022/08/20 11:47:30;;;;;;;3.80;2.25;;;21.30;99.90;;;;;;5004041;28;20052;-81
2022/08/20 11:50:02;;;;;;;2.67;2.47;;;21.20;99.90;;;;;;5012685;28;20029;-82
2022/08/20 11:52:28;;;;;;;3.72;2.55;;;21.20;99.90;;;;;;5011333;28;20404;-82
2022/08/20 11:54:54;;;;;;;2.50;2.30;;;21.30;99.90;;;;;;5012205;28;20026;-80
2022/08/20 11:57:31;;;;;;;2.50;2.30;;;21.40;99.90;;;;;;5011286;28;20037;-80
2022/08/20 11:59:59;;;;;;;2.70;2.50;;;21.50;99.90;;;;;;5012393;28;20063;-81
2022/08/20 12:02:26;;;;;;;2.90;2.63;;;21.70;99.90;;;;;;5008659;28;20077;-80
2022/08/20 12:04:51;;;;;;;3.33;2.55;;;21.80;99.90;;;;;;5006758;28;20044;-81
2022/08/20 12:07:20;;;;;;;2.78;2.30;;;21.90;99.90;;;;;;5010733;28;20056;-81
2022/08/20 12:09:46;;;;;;;2.00;1.80;;;21.90;99.90;;;;;;5013156;28;20021;-79
2022/08/20 12:12:13;;;;;;;1.80;1.70;;;21.90;99.90;;;;;;5012271;28;20033;-77
2022/08/20 12:14:39;;;;;;;2.13;1.90;;;21.90;99.90;;;;;;5015618;28;20057;-75
2022/08/20 12:17:09;;;;;;;2.35;1.75;;;21.90;99.90;;;;;;5012681;28;20111;-80
2022/08/20 12:19:37;;;;;;;1.52;1.38;;;21.90;99.90;;;;;;5014397;28;20033;-82
2022/08/20 12:22:02;;;;;;;1.75;1.48;;;21.80;99.90;;;;;;5012266;28;20053;-81
2022/08/20 12:24:28;;;;;;;2.05;1.90;;;21.70;99.90;;;;;;5012481;28;20442;-81
2022/08/20 12:26:54;;;;;;;2.83;1.70;;;21.80;99.90;;;;;;5013541;28;20037;-86
2022/08/20 12:29:19;;;;;;;1.80;1.70;;;21.90;99.90;;;;;;5010272;28;20026;-82
2022/08/20 12:31:45;;;;;;;1.60;1.50;;;22.00;99.90;;;;;;5012503;28;20120;-78
2022/08/20 12:34:11;;;;;;;2.20;1.52;;;22.00;99.90;;;;;;5012213;28;20062;-82
2022/08/20 12:36:36;;;;;;;1.77;1.67;;;22.00;99.90;;;;;;5009570;28;20029;-85
2022/08/20 12:39:02;;;;;;;1.45;1.35;;;21.90;99.90;;;;;;5005937;28;20043;-82
2022/08/20 12:41:27;;;;;;;2.30;1.63;;;21.90;99.90;;;;;;5006694;28;20053;-84
2022/08/20 12:43:53;;;;;;;1.60;1.50;;;21.80;99.90;;;;;;5007953;28;20088;-81
2022/08/20 12:46:18;;;;;;;2.33;1.95;;;21.80;99.90;;;;;;5006575;28;20036;-87
2022/08/20 12:48:44;;;;;;;2.97;2.45;;;21.80;99.90;;;;;;5007693;28;20152;-87